Time;durP1;ratioP1;P1;durP2;ratioP2;P2;SDS_P1;SDS_P2;PMS_P1;PMS_P2;Temp;Humidity;BMP_temperature;BMP_pressure;BME280_temperature;BME280_humidity;BME280_pressure;Samples;Min_cycle;Max_cycle;Signal;HPM_P1;HPM_P2
2024/01/03 00:00:26;;;;;;;0.30;0.28;;;;;;;;;;5070322;28;20082;-69
2024/01/03 00:02:54;;;;;;;0.30;0.30;;;;;;;;;;5069995;28;20055;-70
2024/01/03 00:05:34;;;;;;;0.60;0.55;;;;;;;;;;5070361;28;20024;-70
2024/01/03 00:07:59;;;;;;;0.43;0.43;;;;;;;;;;5070249;28;20024;-70
2024/01/03 00:10:41;;;;;;;0.82;0.40;;;;;;;;;;5071431;28;20484;-71
2024/01/03 00:13:36;;;;;;;1.02;0.50;;;;;;;;;;5070675;28;20044;-70
2024/01/03 00:16:01;;;;;;;2.05;0.30;;;;;;;;;;5063131;28;20036;-72
2024/01/03 00:18:36;;;;;;;1.45;0.52;;;;;;;;;;5070046;28;20028;-71
2024/01/03 00:21:03;;;;;;;0.40;0.40;;;;;;;;;;5071456;28;20085;-70
2024/01/03 00:23:50;;;;;;;1.17;0.40;;;;;;;;;;5070102;28;20055;-71
2024/01/03 00:26:16;;;;;;;0.40;0.38;;;;;;;;;;5054134;28;20027;-70
2024/01/03 00:28:42;;;;;;;1.10;0.65;;;;;;;;;;5073117;28;20503;-69
2024/01/03 00:31:23;;;;;;;0.68;0.40;;;;;;;;;;5073672;28;20032;-69
2024/01/03 00:33:49;;;;;;;;;;;;;;;;;;5074153;28;20048;-72
2024/01/03 00:36:16;;;;;;;0.57;0.57;;;;;;;;;;5070562;28;19912;-70
2024/01/03 00:38:42;;;;;;;0.60;0.25;;;;;;;;;;5071248;28;20017;-69
2024/01/03 00:41:12;;;;;;;0.50;0.20;;;;;;;;;;5070041;28;20047;-71
2024/01/03 00:43:40;;;;;;;0.40;0.40;;;;;;;;;;5071048;28;20195;-71
2024/01/03 00:46:11;;;;;;;0.30;0.20;;;;;;;;;;5070840;28;20016;-70
2024/01/03 00:48:37;;;;;;;0.28;0.20;;;;;;;;;;5069431;28;20039;-71
2024/01/03 00:51:05;;;;;;;0.30;0.30;;;;;;;;;;5069475;28;20734;-70
2024/01/03 00:53:31;;;;;;;0.38;0.20;;;;;;;;;;5069530;28;20414;-69
2024/01/03 00:55:58;;;;;;;0.30;0.30;;;;;;;;;;5070309;28;20399;-70
2024/01/03 00:58:25;;;;;;;0.65;0.25;;;;;;;;;;5070722;28;20052;-71
2024/01/03 01:00:51;;;;;;;1.40;0.30;;;;;;;;;;5068827;28;20381;-70
2024/01/03 01:03:19;;;;;;;1.98;0.45;;;;;;;;;;5070737;28;20024;-71
2024/01/03 01:05:45;;;;;;;0.32;0.30;;;;;;;;;;5070528;28;20021;-70
2024/01/03 01:08:10;;;;;;;0.40;0.40;;;;;;;;;;5069133;28;20380;-69
2024/01/03 01:10:36;;;;;;;1.85;0.43;;;;;;;;;;5069014;28;20024;-70
2024/01/03 01:13:03;;;;;;;0.70;0.30;;;;;;;;;;5069041;28;20307;-71
2024/01/03 01:15:30;;;;;;;0.20;0.20;;;;;;;;;;5068916;28;20081;-69
2024/01/03 01:17:55;;;;;;;0.30;0.30;;;;;;;;;;5068734;28;20025;-69
2024/01/03 01:20:21;;;;;;;0.55;0.35;;;;;;;;;;5069023;28;20051;-69
2024/01/03 01:22:47;;;;;;;0.75;0.20;;;;;;;;;;5068462;28;20123;-70
2024/01/03 01:25:13;;;;;;;0.30;0.30;;;;;;;;;;5068326;28;20419;-72
2024/01/03 01:27:40;;;;;;;0.40;0.20;;;;;;;;;;5068702;28;20377;-70
2024/01/03 01:30:06;;;;;;;0.77;0.25;;;;;;;;;;5069017;28;20465;-70
2024/01/03 01:32:31;;;;;;;0.20;0.20;;;;;;;;;;5070626;28;20032;-71
2024/01/03 01:34:57;;;;;;;0.30;0.20;;;;;;;;;;5055512;28;20404;-74
2024/01/03 01:37:23;;;;;;;0.38;0.30;;;;;;;;;;5072638;28;20024;-73
2024/01/03 01:39:49;;;;;;;1.65;0.20;;;;;;;;;;5071062;28;20021;-74
2024/01/03 01:42:14;;;;;;;0.22;0.22;;;;;;;;;;5070835;28;20028;-73
2024/01/03 01:44:40;;;;;;;0.70;0.17;;;;;;;;;;5070378;28;20177;-75
2024/01/03 01:47:11;;;;;;;0.20;0.20;;;;;;;;;;5070081;28;20021;-75
2024/01/03 01:49:39;;;;;;;0.32;0.20;;;;;;;;;;5070466;28;20017;-73
2024/01/03 01:52:11;;;;;;;0.65;0.50;;;;;;;;;;5070399;28;20110;-74
2024/01/03 01:54:37;;;;;;;0.50;0.50;;;;;;;;;;5071247;28;20029;-75
2024/01/03 01:57:04;;;;;;;0.98;0.38;;;;;;;;;;5072681;28;20032;-73
2024/01/03 01:59:30;;;;;;;0.47;0.20;;;;;;;;;;5071344;28;20032;-74
2024/01/03 02:01:57;;;;;;;0.85;0.30;;;;;;;;;;5071987;28;20058;-74
2024/01/03 02:04:23;;;;;;;0.10;0.10;;;;;;;;;;5071086;28;20040;-73
2024/01/03 02:06:49;;;;;;;1.02;0.40;;;;;;;;;;5071723;28;20028;-73
2024/01/03 02:09:15;;;;;;;1.45;0.40;;;;;;;;;;5071200;28;20040;-75
2024/01/03 02:11:48;;;;;;;0.20;0.20;;;;;;;;;;5070949;28;20024;-74
2024/01/03 02:14:13;;;;;;;0.10;0.10;;;;;;;;;;5071693;28;20386;-74
2024/01/03 02:16:40;;;;;;;1.63;0.17;;;;;;;;;;5071166;28;20032;-73
2024/01/03 02:19:06;;;;;;;0.13;0.13;;;;;;;;;;5071359;28;20028;-74
2024/01/03 02:21:32;;;;;;;1.20;0.30;;;;;;;;;;5071013;28;20032;-75
2024/01/03 02:23:57;;;;;;;0.20;0.20;;;;;;;;;;5070301;28;20108;-76
2024/01/03 02:26:23;;;;;;;0.10;0.10;;;;;;;;;;5070480;28;20017;-73
2024/01/03 02:28:49;;;;;;;0.20;0.20;;;;;;;;;;5070197;28;20025;-74
2024/01/03 02:31:14;;;;;;;0.68;0.35;;;;;;;;;;5052835;28;20128;-76
2024/01/03 02:33:40;;;;;;;0.40;0.20;;;;;;;;;;5071379;28;20033;-76
2024/01/03 02:36:06;;;;;;;0.15;0.15;;;;;;;;;;5071584;28;20019;-74
2024/01/03 02:38:32;;;;;;;0.43;0.20;;;;;;;;;;5075026;28;20103;-75
2024/01/03 02:40:58;;;;;;;0.68;0.25;;;;;;;;;;5074669;28;20104;-74
2024/01/03 02:43:24;;;;;;;1.25;0.20;;;;;;;;;;5075129;28;20032;-73
2024/01/03 02:45:51;;;;;;;0.10;0.10;;;;;;;;;;5073506;28;20025;-74
2024/01/03 02:48:17;;;;;;;0.50;0.40;;;;;;;;;;5073545;28;20025;-74
2024/01/03 02:50:48;;;;;;;0.50;0.30;;;;;;;;;;5073074;28;20082;-73
2024/01/03 02:53:14;;;;;;;0.10;0.10;;;;;;;;;;5073974;28;20059;-74
2024/01/03 02:55:40;;;;;;;1.42;0.20;;;;;;;;;;5073194;28;20055;-75
2024/01/03 02:58:05;;;;;;;0.20;0.20;;;;;;;;;;5054977;28;20033;-75
2024/01/03 03:00:31;;;;;;;0.90;0.30;;;;;;;;;;5054972;28;20056;-75
2024/01/03 03:02:57;;;;;;;0.40;0.30;;;;;;;;;;5053276;28;20035;-73
2024/01/03 03:05:23;;;;;;;0.45;0.20;;;;;;;;;;5053539;28;20037;-73
2024/01/03 03:07:48;;;;;;;0.30;0.30;;;;;;;;;;5055184;28;20036;-75
2024/01/03 03:10:15;;;;;;;1.75;0.10;;;;;;;;;;5053504;28;20040;-76
2024/01/03 03:12:40;;;;;;;0.68;0.20;;;;;;;;;;5060470;28;20476;-73
2024/01/03 03:15:07;;;;;;;1.15;0.30;;;;;;;;;;5074540;28;20118;-73
2024/01/03 03:17:32;;;;;;;0.40;0.30;;;;;;;;;;5074364;28;20033;-75
2024/01/03 03:19:58;;;;;;;0.52;0.35;;;;;;;;;;5073093;28;20040;-74
2024/01/03 03:22:24;;;;;;;0.45;0.30;;;;;;;;;;5074519;28;20037;-75
2024/01/03 03:24:49;;;;;;;0.32;0.20;;;;;;;;;;5074557;28;20027;-73
2024/01/03 03:27:15;;;;;;;0.20;0.20;;;;;;;;;;5074584;28;20028;-73
2024/01/03 03:29:40;;;;;;;0.70;0.20;;;;;;;;;;5074755;28;20024;-74
2024/01/03 03:32:07;;;;;;;0.30;0.30;;;;;;;;;;5074723;28;20041;-75
2024/01/03 03:34:33;;;;;;;1.75;0.15;;;;;;;;;;5074175;28;20033;-72
2024/01/03 03:37:04;;;;;;;2.30;0.28;;;;;;;;;;5072641;28;20028;-74
2024/01/03 03:39:29;;;;;;;0.20;0.20;;;;;;;;;;5072810;28;20021;-74
2024/01/03 03:41:55;;;;;;;0.28;0.20;;;;;;;;;;5072211;28;20040;-75
2024/01/03 03:44:21;;;;;;;1.05;0.40;;;;;;;;;;5072452;28;20040;-74
2024/01/03 03:46:47;;;;;;;0.73;0.13;;;;;;;;;;5071226;28;20033;-75
2024/01/03 03:49:12;;;;;;;1.55;0.30;;;;;;;;;;5072391;28;20038;-75
2024/01/03 03:51:38;;;;;;;0.20;0.20;;;;;;;;;;5074023;28;20392;-75
2024/01/03 03:54:04;;;;;;;0.30;0.30;;;;;;;;;;5072575;28;20445;-74
2024/01/03 03:56:29;;;;;;;0.65;0.50;;;;;;;;;;5071601;28;20032;-74
2024/01/03 03:58:56;;;;;;;0.55;0.35;;;;;;;;;;5071855;28;20443;-73
2024/01/03 04:01:22;;;;;;;0.10;0.10;;;;;;;;;;5071882;28;20038;-73
2024/01/03 04:03:48;;;;;;;0.30;0.30;;;;;;;;;;5073311;28;20174;-74
2024/01/03 04:06:15;;;;;;;0.95;0.25;;;;;;;;;;5073792;28;20476;-73
2024/01/03 04:08:48;;;;;;;0.63;0.30;;;;;;;;;;5072031;28;20052;-75
2024/01/03 04:11:14;;;;;;;1.23;0.25;;;;;;;;;;5072294;28;20032;-74
2024/01/03 04:13:40;;;;;;;2.03;0.30;;;;;;;;;;5073352;28;20650;-73
2024/01/03 04:16:09;;;;;;;0.20;0.20;;;;;;;;;;5071639;28;20390;-73
2024/01/03 04:18:35;;;;;;;1.05;0.28;;;;;;;;;;5071403;28;20032;-75
2024/01/03 04:21:05;;;;;;;1.70;0.30;;;;;;;;;;5072719;28;20058;-73
2024/01/03 04:23:31;;;;;;;0.20;0.20;;;;;;;;;;5073130;28;20031;-74
2024/01/03 04:25:57;;;;;;;0.20;0.10;;;;;;;;;;5071502;28;20020;-73
2024/01/03 04:28:23;;;;;;;1.70;0.28;;;;;;;;;;5073216;28;20139;-75
2024/01/03 04:30:49;;;;;;;0.50;0.20;;;;;;;;;;5088393;28;20036;-74
2024/01/03 04:33:14;;;;;;;0.57;0.35;;;;;;;;;;5072767;28;20247;-73
2024/01/03 04:35:40;;;;;;;1.27;0.35;;;;;;;;;;5071560;28;20357;-74
2024/01/03 04:38:06;;;;;;;0.28;0.20;;;;;;;;;;5071596;28;20186;-74
2024/01/03 04:40:33;;;;;;;1.13;0.30;;;;;;;;;;5072178;28;20036;-73
2024/01/03 04:42:59;;;;;;;0.45;0.30;;;;;;;;;;5076113;28;20036;-71
2024/01/03 04:45:24;;;;;;;0.95;0.40;;;;;;;;;;5080212;28;20063;-71
2024/01/03 04:47:50;;;;;;;0.40;0.40;;;;;;;;;;5078867;28;20388;-74
2024/01/03 04:50:17;;;;;;;0.95;0.40;;;;;;;;;;5072735;28;20089;-73
2024/01/03 04:52:43;;;;;;;0.20;0.20;;;;;;;;;;5073221;28;20036;-75
2024/01/03 04:55:08;;;;;;;0.40;0.30;;;;;;;;;;5072660;28;20037;-71
2024/01/03 04:57:35;;;;;;;0.20;0.20;;;;;;;;;;5071282;28;20071;-74
2024/01/03 05:00:01;;;;;;;0.73;0.45;;;;;;;;;;5071044;28;20476;-73
2024/01/03 05:02:27;;;;;;;2.38;0.85;;;;;;;;;;5071406;28;20036;-74
2024/01/03 05:04:53;;;;;;;0.15;0.13;;;;;;;;;;5070354;28;20032;-75
2024/01/03 05:07:19;;;;;;;0.30;0.30;;;;;;;;;;5069234;28;20036;-71
2024/01/03 05:09:46;;;;;;;0.25;0.10;;;;;;;;;;5068915;28;20476;-71
2024/01/03 05:12:11;;;;;;;0.55;0.30;;;;;;;;;;5068210;28;20488;-70
2024/01/03 05:14:37;;;;;;;0.28;0.28;;;;;;;;;;5068822;28;20052;-69
2024/01/03 05:17:03;;;;;;;0.73;0.43;;;;;;;;;;5068409;28;20051;-69
2024/01/03 05:19:29;;;;;;;0.63;0.30;;;;;;;;;;5070149;28;20028;-70
2024/01/03 05:21:55;;;;;;;0.63;0.25;;;;;;;;;;5068599;28;20028;-70
2024/01/03 05:24:22;;;;;;;0.43;0.30;;;;;;;;;;5070137;28;20338;-70
2024/01/03 05:26:47;;;;;;;1.20;0.40;;;;;;;;;;5070274;28;20040;-70
2024/01/03 05:29:13;;;;;;;0.10;0.10;;;;;;;;;;5069831;28;20040;-70
2024/01/03 05:31:39;;;;;;;0.50;0.50;;;;;;;;;;5068869;28;20105;-69
2024/01/03 05:34:05;;;;;;;0.50;0.30;;;;;;;;;;5069204;28;20040;-69
2024/01/03 05:36:30;;;;;;;1.73;0.30;;;;;;;;;;5068295;28;20055;-69
2024/01/03 05:38:56;;;;;;;0.85;0.40;;;;;;;;;;5068611;28;20374;-69
2024/01/03 05:41:22;;;;;;;0.30;0.28;;;;;;;;;;5068546;28;20032;-68
2024/01/03 05:43:47;;;;;;;1.75;0.30;;;;;;;;;;5068456;28;20035;-69
2024/01/03 05:46:13;;;;;;;0.32;0.20;;;;;;;;;;5068461;28;20047;-69
2024/01/03 05:48:38;;;;;;;0.20;0.20;;;;;;;;;;5068416;28;20039;-68
2024/01/03 05:51:06;;;;;;;0.32;0.17;;;;;;;;;;5067981;28;20032;-70
2024/01/03 05:53:31;;;;;;;1.45;0.40;;;;;;;;;;5069760;28;20565;-71
2024/01/03 05:55:57;;;;;;;0.20;0.20;;;;;;;;;;5068106;28;20064;-71
2024/01/03 05:58:23;;;;;;;1.05;0.30;;;;;;;;;;5069752;28;20033;-70
2024/01/03 06:00:49;;;;;;;0.98;0.40;;;;;;;;;;5068481;28;20039;-70
2024/01/03 06:03:15;;;;;;;2.20;0.30;;;;;;;;;;5068542;28;20075;-71
2024/01/03 06:05:41;;;;;;;0.82;0.30;;;;;;;;;;5068305;28;20395;-70
2024/01/03 06:08:07;;;;;;;0.22;0.22;;;;;;;;;;5069771;28;20046;-69
2024/01/03 06:10:32;;;;;;;0.65;0.45;;;;;;;;;;5070903;28;20114;-70
2024/01/03 06:12:58;;;;;;;2.97;0.50;;;;;;;;;;5071845;28;20521;-71
2024/01/03 06:15:24;;;;;;;1.08;0.40;;;;;;;;;;5072140;28;20089;-70
2024/01/03 06:17:49;;;;;;;0.75;0.38;;;;;;;;;;5072152;28;20119;-69
2024/01/03 06:20:15;;;;;;;0.60;0.50;;;;;;;;;;5073274;28;20076;-70
2024/01/03 06:22:41;;;;;;;0.55;0.30;;;;;;;;;;5072258;28;20120;-71
2024/01/03 06:25:07;;;;;;;2.92;0.60;;;;;;;;;;5072544;28;20031;-69
2024/01/03 06:27:32;;;;;;;2.25;0.43;;;;;;;;;;5072625;28;20539;-70
2024/01/03 06:29:59;;;;;;;2.15;0.47;;;;;;;;;;5072868;28;20140;-72
2024/01/03 06:32:24;;;;;;;0.47;0.40;;;;;;;;;;5072342;28;20028;-68
2024/01/03 06:34:50;;;;;;;0.85;0.30;;;;;;;;;;5072342;28;20055;-70
2024/01/03 06:37:17;;;;;;;0.40;0.40;;;;;;;;;;5072283;28;20528;-71
2024/01/03 06:39:43;;;;;;;0.73;0.40;;;;;;;;;;5073720;28;20040;-71
2024/01/03 06:42:08;;;;;;;0.38;0.30;;;;;;;;;;5074380;28;20107;-71
2024/01/03 06:44:34;;;;;;;1.90;0.47;;;;;;;;;;5073732;28;20027;-70
2024/01/03 06:47:01;;;;;;;2.20;0.40;;;;;;;;;;5074516;28;20081;-70
2024/01/03 06:49:27;;;;;;;4.95;0.68;;;;;;;;;;5072503;28;20444;-69
2024/01/03 06:51:53;;;;;;;2.08;0.43;;;;;;;;;;5065872;28;20396;-72
2024/01/03 06:54:18;;;;;;;1.02;0.75;;;;;;;;;;5069330;28;20036;-72
2024/01/03 06:56:44;;;;;;;2.22;0.40;;;;;;;;;;5066547;28;20059;-70
2024/01/03 06:59:10;;;;;;;0.55;0.47;;;;;;;;;;5071072;28;20029;-71
2024/01/03 07:01:38;;;;;;;1.00;0.45;;;;;;;;;;5070857;28;20380;-71
2024/01/03 07:04:04;;;;;;;0.52;0.28;;;;;;;;;;5061074;28;20064;-74
2024/01/03 07:06:29;;;;;;;1.75;0.40;;;;;;;;;;5067856;28;20039;-70
2024/01/03 07:08:55;;;;;;;2.20;0.57;;;;;;;;;;5063596;28;20131;-71
2024/01/03 07:11:20;;;;;;;6.82;0.80;;;;;;;;;;5065212;28;20032;-71
2024/01/03 07:13:46;;;;;;;2.28;0.55;;;;;;;;;;5066992;28;20063;-71
2024/01/03 07:16:12;;;;;;;0.22;0.22;;;;;;;;;;5069724;28;20475;-72
2024/01/03 07:18:38;;;;;;;1.30;0.50;;;;;;;;;;5071315;28;20036;-71
2024/01/03 07:21:04;;;;;;;1.92;0.38;;;;;;;;;;5069499;28;20289;-70
2024/01/03 07:23:30;;;;;;;0.88;0.57;;;;;;;;;;5073282;28;20060;-70
2024/01/03 07:25:55;;;;;;;1.30;0.57;;;;;;;;;;5071168;28;20470;-71
2024/01/03 07:28:22;;;;;;;1.45;0.43;;;;;;;;;;5071087;28;20036;-71
2024/01/03 07:30:48;;;;;;;1.27;0.50;;;;;;;;;;5068364;28;20492;-71
2024/01/03 07:33:13;;;;;;;2.08;0.40;;;;;;;;;;5068058;28;20101;-71
2024/01/03 07:35:40;;;;;;;5.05;0.75;;;;;;;;;;5060288;28;20082;-71
2024/01/03 07:38:07;;;;;;;0.40;0.40;;;;;;;;;;5063272;28;20068;-71
2024/01/03 07:40:32;;;;;;;2.55;0.40;;;;;;;;;;5050193;28;20263;-71
2024/01/03 07:42:58;;;;;;;0.77;0.32;;;;;;;;;;5060808;28;20041;-70
2024/01/03 07:45:24;;;;;;;0.43;0.30;;;;;;;;;;5064601;28;20032;-72
2024/01/03 07:47:51;;;;;;;1.58;0.30;;;;;;;;;;5067046;28;20082;-70
2024/01/03 07:50:18;;;;;;;0.88;0.50;;;;;;;;;;5058837;28;20064;-71
2024/01/03 07:52:44;;;;;;;1.33;0.75;;;;;;;;;;5065281;28;20094;-71
2024/01/03 07:55:10;;;;;;;0.60;0.38;;;;;;;;;;5052910;28;20067;-71
2024/01/03 07:57:35;;;;;;;0.95;0.50;;;;;;;;;;5059347;28;20517;-72
2024/01/03 08:00:01;;;;;;;2.60;0.38;;;;;;;;;;5060611;28;20086;-72
2024/01/03 08:02:28;;;;;;;0.30;0.30;;;;;;;;;;5067307;28;20032;-71
2024/01/03 08:04:54;;;;;;;0.52;0.30;;;;;;;;;;5067621;28;20391;-73
2024/01/03 08:07:21;;;;;;;0.73;0.38;;;;;;;;;;5059205;28;20112;-71
2024/01/03 08:09:47;;;;;;;0.32;0.30;;;;;;;;;;5064493;28;20437;-71
2024/01/03 08:12:14;;;;;;;0.50;0.45;;;;;;;;;;5064816;28;20047;-70
2024/01/03 08:14:39;;;;;;;1.60;0.50;;;;;;;;;;5067936;28;20513;-72
2024/01/03 08:17:06;;;;;;;2.05;0.77;;;;;;;;;;5070456;28;20650;-71
2024/01/03 08:19:31;;;;;;;4.40;1.80;;;;;;;;;;5071696;28;20040;-72
2024/01/03 08:21:59;;;;;;;0.95;0.47;;;;;;;;;;5066036;28;20033;-71
2024/01/03 08:24:26;;;;;;;1.27;0.32;;;;;;;;;;5070933;28;20426;-72
2024/01/03 08:26:52;;;;;;;2.75;0.80;;;;;;;;;;5063536;28;20029;-70
2024/01/03 08:29:18;;;;;;;2.38;0.57;;;;;;;;;;5067803;28;20027;-71
2024/01/03 08:31:46;;;;;;;2.08;0.70;;;;;;;;;;5067080;28;20025;-70
2024/01/03 08:34:12;;;;;;;2.67;0.90;;;;;;;;;;5064058;28;20503;-71
2024/01/03 08:36:40;;;;;;;2.92;0.68;;;;;;;;;;5059637;28;20520;-74
2024/01/03 08:42:15;;;;;;;3.35;0.60;;;;;;;;;;5050699;28;20036;-72
2024/01/03 08:48:57;;;;;;;0.50;0.40;;;;;;;;;;5037917;28;20498;-71
2024/01/03 08:55:22;;;;;;;0.98;0.47;;;;;;;;;;5053422;28;20116;-71
2024/01/03 08:57:56;;;;;;;1.65;0.70;;;;;;;;;;5064023;28;20084;-70
2024/01/03 09:00:25;;;;;;;0.75;0.40;;;;;;;;;;5061520;28;20032;-69
2024/01/03 09:02:51;;;;;;;0.73;0.52;;;;;;;;;;5063128;28;20055;-70
2024/01/03 09:05:18;;;;;;;1.23;0.50;;;;;;;;;;5062410;28;20013;-72
2024/01/03 09:07:45;;;;;;;1.38;0.65;;;;;;;;;;5061739;28;20028;-72
2024/01/03 09:10:11;;;;;;;2.63;0.40;;;;;;;;;;5064610;28;20028;-71
2024/01/03 09:12:37;;;;;;;1.95;0.70;;;;;;;;;;5062879;28;20040;-70
2024/01/03 09:15:07;;;;;;;2.35;0.57;;;;;;;;;;5065814;28;20245;-72
2024/01/03 09:17:35;;;;;;;3.20;0.70;;;;;;;;;;5062452;28;20448;-73
2024/01/03 09:20:01;;;;;;;0.98;0.50;;;;;;;;;;5064446;28;20032;-70
2024/01/03 09:22:28;;;;;;;1.27;0.60;;;;;;;;;;5067972;28;20028;-73
2024/01/03 09:24:54;;;;;;;2.40;0.50;;;;;;;;;;5065127;28;20349;-72
2024/01/03 09:27:20;;;;;;;0.75;0.35;;;;;;;;;;5063799;28;20086;-71
2024/01/03 09:29:48;;;;;;;1.17;0.52;;;;;;;;;;5064229;28;20028;-74
2024/01/03 09:32:16;;;;;;;1.73;0.43;;;;;;;;;;5067016;28;20097;-72
2024/01/03 09:34:45;;;;;;;2.63;0.50;;;;;;;;;;5063009;28;20124;-72
2024/01/03 09:37:12;;;;;;;0.65;0.35;;;;;;;;;;5062984;28;20040;-71
2024/01/03 09:39:38;;;;;;;1.08;0.63;;;;;;;;;;5060533;28;20388;-71
2024/01/03 09:42:04;;;;;;;3.08;0.65;;;;;;;;;;5068876;28;20036;-70
2024/01/03 09:44:35;;;;;;;1.20;0.55;;;;;;;;;;5061441;28;20373;-73
2024/01/03 09:47:01;;;;;;;2.78;0.60;;;;;;;;;;5064537;28;20043;-71
2024/01/03 09:49:27;;;;;;;1.33;0.57;;;;;;;;;;5065521;28;20387;-71
2024/01/03 09:51:55;;;;;;;1.83;0.75;;;;;;;;;;5064013;28;20028;-72
2024/01/03 09:54:21;;;;;;;1.83;0.50;;;;;;;;;;5065809;28;20169;-70
2024/01/03 09:56:51;;;;;;;3.58;0.77;;;;;;;;;;5063940;28;20055;-73
2024/01/03 09:59:17;;;;;;;3.88;2.03;;;;;;;;;;5062894;28;20597;-71
2024/01/03 10:01:58;;;;;;;3.72;0.88;;;;;;;;;;5057606;28;20043;-70
2024/01/03 10:04:27;;;;;;;0.73;0.65;;;;;;;;;;5059187;28;20028;-73
2024/01/03 10:06:58;;;;;;;2.38;0.75;;;;;;;;;;5060430;28;20028;-73
2024/01/03 10:09:24;;;;;;;1.47;0.47;;;;;;;;;;5064029;28;20060;-72
2024/01/03 10:11:52;;;;;;;1.60;0.82;;;;;;;;;;5065354;28;20024;-72
2024/01/03 10:14:19;;;;;;;2.03;0.60;;;;;;;;;;5065932;28;20442;-70
2024/01/03 10:16:45;;;;;;;1.83;0.60;;;;;;;;;;5064658;28;20086;-72
2024/01/03 10:19:30;;;;;;;0.98;0.60;;;;;;;;;;5062301;28;20028;-72
2024/01/03 10:21:59;;;;;;;3.90;0.55;;;;;;;;;;5060259;28;20371;-70
2024/01/03 10:24:24;;;;;;;4.63;0.77;;;;;;;;;;5060390;28;20021;-73
2024/01/03 10:26:50;;;;;;;5.43;0.73;;;;;;;;;;5065658;28;20406;-72
2024/01/03 10:29:17;;;;;;;2.50;0.50;;;;;;;;;;5066644;28;20039;-72
2024/01/03 10:31:54;;;;;;;1.27;0.63;;;;;;;;;;5073669;28;20043;-71
2024/01/03 10:34:23;;;;;;;5.00;0.82;;;;;;;;;;5066730;28;20048;-72
2024/01/03 10:36:52;;;;;;;4.07;0.60;;;;;;;;;;5060712;28;20218;-74
2024/01/03 10:39:21;;;;;;;4.45;0.90;;;;;;;;;;5063802;28;20106;-70
2024/01/03 10:41:49;;;;;;;1.95;0.63;;;;;;;;;;5055083;28;20033;-70
2024/01/03 10:44:16;;;;;;;4.45;0.60;;;;;;;;;;5066794;28;20036;-71
2024/01/03 10:46:44;;;;;;;0.90;0.57;;;;;;;;;;5044976;28;20028;-72
2024/01/03 10:49:13;;;;;;;1.35;0.50;;;;;;;;;;5045880;28;20043;-72
2024/01/03 10:51:40;;;;;;;2.30;1.05;;;;;;;;;;5061304;28;20039;-73
2024/01/03 10:54:10;;;;;;;3.80;0.60;;;;;;;;;;5060567;28;20032;-72
2024/01/03 10:57:00;;;;;;;1.40;0.82;;;;;;;;;;5049543;28;20395;-73
2024/01/03 10:59:36;;;;;;;3.38;0.80;;;;;;;;;;5066555;28;20602;-71
2024/01/03 11:02:14;;;;;;;3.10;0.80;;;;;;;;;;5069215;28;20031;-69
2024/01/03 11:05:06;;;;;;;5.32;0.65;;;;;;;;;;5060638;28;20495;-72
2024/01/03 11:07:42;;;;;;;1.65;0.80;;;;;;;;;;5065197;28;20031;-74
2024/01/03 11:10:11;;;;;;;1.95;0.60;;;;;;;;;;5072320;28;20480;-71
2024/01/03 11:12:40;;;;;;;4.65;0.43;;;;;;;;;;5063948;28;20036;-71
2024/01/03 11:15:25;;;;;;;0.85;0.40;;;;;;;;;;5083994;28;20028;-72
2024/01/03 11:17:51;;;;;;;2.15;0.82;;;;;;;;;;5060135;28;20316;-72
2024/01/03 11:20:28;;;;;;;1.08;0.43;;;;;;;;;;5065140;28;20024;-71
2024/01/03 11:23:00;;;;;;;1.70;0.55;;;;;;;;;;5066075;28;20036;-72
2024/01/03 11:25:51;;;;;;;3.60;0.68;;;;;;;;;;5065627;28;20028;-71
2024/01/03 11:28:33;;;;;;;4.60;0.50;;;;;;;;;;5062248;28;20076;-72
2024/01/03 11:31:00;;;;;;;1.35;0.68;;;;;;;;;;5066665;28;20033;-72
2024/01/03 11:33:28;;;;;;;5.30;1.00;;;;;;;;;;5067388;28;20397;-72
2024/01/03 11:35:54;;;;;;;2.70;0.65;;;;;;;;;;5065866;28;20033;-71
2024/01/03 11:38:42;;;;;;;3.15;0.90;;;;;;;;;;5064192;28;20032;-73
2024/01/03 11:41:09;;;;;;;4.28;0.70;;;;;;;;;;5062654;28;20081;-73
2024/01/03 11:43:35;;;;;;;2.83;1.15;;;;;;;;;;5064931;28;20465;-72
2024/01/03 11:46:08;;;;;;;1.40;0.68;;;;;;;;;;5051609;28;20127;-72
2024/01/03 11:48:35;;;;;;;3.13;0.68;;;;;;;;;;5070176;28;20064;-72
2024/01/03 11:51:01;;;;;;;3.10;0.50;;;;;;;;;;5063239;28;20263;-70
2024/01/03 11:53:33;;;;;;;1.55;0.95;;;;;;;;;;5066500;28;20024;-70
2024/01/03 11:55:59;;;;;;;5.10;0.75;;;;;;;;;;5066400;28;20033;-72
2024/01/03 11:58:29;;;;;;;2.28;0.70;;;;;;;;;;5073202;28;20545;-70
2024/01/03 12:01:05;;;;;;;1.33;0.40;;;;;;;;;;5066438;28;20036;-71
2024/01/03 12:03:32;;;;;;;1.75;0.40;;;;;;;;;;5065633;28;20071;-71
2024/01/03 12:05:59;;;;;;;2.17;0.73;;;;;;;;;;5065547;28;20020;-72
2024/01/03 12:08:26;;;;;;;4.47;0.85;;;;;;;;;;5058195;28;20032;-72
2024/01/03 12:10:57;;;;;;;1.92;1.42;;;;;;;;;;5063750;28;20029;-73
2024/01/03 12:13:23;;;;;;;1.80;0.50;;;;;;;;;;5056270;28;20059;-71
2024/01/03 12:15:48;;;;;;;1.08;0.82;;;;;;;;;;5065792;28;20289;-72
2024/01/03 12:18:14;;;;;;;2.28;0.47;;;;;;;;;;5060045;28;20430;-70
2024/01/03 12:20:46;;;;;;;0.75;0.57;;;;;;;;;;5064028;28;20063;-70
2024/01/03 12:23:15;;;;;;;1.27;0.70;;;;;;;;;;5062165;28;20035;-72
2024/01/03 12:25:47;;;;;;;0.68;0.30;;;;;;;;;;5060337;28;20111;-71
2024/01/03 12:28:19;;;;;;;0.88;0.50;;;;;;;;;;5072811;28;20051;-71
2024/01/03 12:30:58;;;;;;;5.32;0.55;;;;;;;;;;5066893;28;20131;-72
2024/01/03 12:33:33;;;;;;;2.05;0.30;;;;;;;;;;5030537;28;20037;-71
2024/01/03 12:36:06;;;;;;;0.47;0.40;;;;;;;;;;5009861;28;20125;-69
2024/01/03 12:38:32;;;;;;;0.43;0.40;;;;;;;;;;5031406;28;20067;-72
2024/01/03 12:41:01;;;;;;;0.60;0.57;;;;;;;;;;5010139;28;20037;-69
2024/01/03 12:43:33;;;;;;;0.80;0.70;;;;;;;;;;5024786;28;20428;-70
2024/01/03 12:46:05;;;;;;;2.22;0.45;;;;;;;;;;5008874;28;20021;-72
2024/01/03 12:48:34;;;;;;;0.47;0.40;;;;;;;;;;5005715;28;20501;-70
2024/01/03 12:51:03;;;;;;;0.95;0.55;;;;;;;;;;5004117;28;20518;-72
2024/01/03 12:53:49;;;;;;;2.50;0.47;;;;;;;;;;5007582;28;20036;-74
2024/01/03 12:56:18;;;;;;;1.00;0.50;;;;;;;;;;5028699;28;20111;-69
2024/01/03 12:58:45;;;;;;;1.17;0.40;;;;;;;;;;5022568;28;20498;-73
2024/01/03 13:01:11;;;;;;;0.50;0.50;;;;;;;;;;5024325;28;20064;-72
2024/01/03 13:03:42;;;;;;;0.85;0.38;;;;;;;;;;5034122;28;20101;-70
2024/01/03 13:06:49;;;;;;;0.60;0.30;;;;;;;;;;5070722;28;20025;-72
2024/01/03 13:09:17;;;;;;;1.02;0.43;;;;;;;;;;5070897;28;20100;-71
2024/01/03 13:11:43;;;;;;;2.08;0.40;;;;;;;;;;5067689;28;20472;-71
2024/01/03 13:14:12;;;;;;;2.33;0.47;;;;;;;;;;5061583;28;20044;-71
2024/01/03 13:16:41;;;;;;;0.77;0.50;;;;;;;;;;5068314;28;20051;-70
2024/01/03 13:19:10;;;;;;;1.45;0.35;;;;;;;;;;5065352;28;20024;-72
2024/01/03 13:21:36;;;;;;;1.08;0.50;;;;;;;;;;5064374;28;20036;-70
2024/01/03 13:24:02;;;;;;;1.27;0.63;;;;;;;;;;5070884;28;20111;-74
2024/01/03 13:26:30;;;;;;;1.30;0.35;;;;;;;;;;5066800;28;20101;-73
2024/01/03 13:28:57;;;;;;;0.40;0.40;;;;;;;;;;5065029;28;20039;-71
2024/01/03 13:31:26;;;;;;;0.82;0.50;;;;;;;;;;5063874;28;20040;-73
2024/01/03 13:33:57;;;;;;;0.32;0.32;;;;;;;;;;5068072;28;20326;-73
2024/01/03 13:36:24;;;;;;;0.63;0.52;;;;;;;;;;5069334;28;20280;-71
2024/01/03 13:38:53;;;;;;;1.30;0.55;;;;;;;;;;5065240;28;20363;-71
2024/01/03 13:41:19;;;;;;;6.70;0.50;;;;;;;;;;5062652;28;20024;-74
2024/01/03 13:44:20;;;;;;;1.25;0.55;;;;;;;;;;5064887;28;20032;-71
2024/01/03 13:46:58;;;;;;;1.20;0.75;;;;;;;;;;5065136;28;20025;-74
2024/01/03 13:49:59;;;;;;;;;;;;;;;;;;;;;
2024/01/03 13:52:46;;;;;;;0.73;0.47;;;;;;;;;;5067357;28;20031;-72
2024/01/03 13:55:18;;;;;;;1.67;0.63;;;;;;;;;;5067488;28;20033;-71
2024/01/03 13:58:07;;;;;;;1.38;0.50;;;;;;;;;;5064611;28;20029;-71
2024/01/03 14:00:41;;;;;;;0.57;0.55;;;;;;;;;;5066146;28;20041;-74
2024/01/03 14:03:11;;;;;;;2.17;0.43;;;;;;;;;;5064310;28;20534;-72
2024/01/03 14:05:57;;;;;;;0.65;0.50;;;;;;;;;;5063986;28;20479;-71
2024/01/03 14:08:25;;;;;;;1.77;0.68;;;;;;;;;;5065199;28;20040;-72
2024/01/03 14:11:03;;;;;;;1.35;0.60;;;;;;;;;;5070390;28;20033;-71
2024/01/03 14:13:39;;;;;;;0.40;0.40;;;;;;;;;;5070263;28;20071;-73
2024/01/03 14:16:13;;;;;;;1.20;0.63;;;;;;;;;;5074082;28;20072;-71
2024/01/03 14:18:39;;;;;;;1.63;0.90;;;;;;;;;;5059811;28;20041;-73
2024/01/03 14:21:08;;;;;;;3.28;0.82;;;;;;;;;;5071304;28;20098;-73
2024/01/03 14:23:46;;;;;;;1.08;0.47;;;;;;;;;;5052657;28;20043;-74
2024/01/03 14:26:24;;;;;;;0.47;0.30;;;;;;;;;;5070304;28;20154;-72
2024/01/03 14:29:07;;;;;;;0.50;0.50;;;;;;;;;;5070852;28;20062;-71
2024/01/03 14:31:33;;;;;;;2.72;0.88;;;;;;;;;;5053789;28;20029;-73
2024/01/03 14:34:18;;;;;;;1.63;0.40;;;;;;;;;;5069975;28;20035;-74
2024/01/03 14:37:08;;;;;;;0.75;0.50;;;;;;;;;;5059637;28;20045;-70
2024/01/03 14:39:42;;;;;;;2.60;0.55;;;;;;;;;;5062028;28;20047;-75
2024/01/03 14:42:23;;;;;;;1.67;0.35;;;;;;;;;;5064431;28;20066;-71
2024/01/03 14:45:09;;;;;;;1.13;0.60;;;;;;;;;;5069575;28;20118;-71
2024/01/03 14:47:48;;;;;;;;;;;;;;;;;;;;;
2024/01/03 14:50:17;;;;;;;1.45;0.38;;;;;;;;;;5071999;28;20035;-72
2024/01/03 14:52:45;;;;;;;0.45;0.32;;;;;;;;;;5066301;28;20131;-73
2024/01/03 14:55:11;;;;;;;0.80;0.60;;;;;;;;;;5070142;28;20618;-71
2024/01/03 14:57:39;;;;;;;1.38;0.60;;;;;;;;;;5065289;28;20036;-72
2024/01/03 15:00:06;;;;;;;0.75;0.35;;;;;;;;;;5054010;28;20480;-71
2024/01/03 15:02:32;;;;;;;0.73;0.38;;;;;;;;;;5067909;28;20028;-71
2024/01/03 15:04:59;;;;;;;1.10;0.35;;;;;;;;;;5048233;28;20102;-71